Time;durP1;ratioP1;P1;durP2;ratioP2;P2;SDS_P1;SDS_P2;PMS_P1;PMS_P2;Temp;Humidity;BMP_temperature;BMP_pressure;BME280_temperature;BME280_humidity;BME280_pressure;Samples;Min_cycle;Max_cycle;Signal;HPM_P1;HPM_P2
2023/02/10 00:01:36;;;;;;;5.22;0.88;;;;;;;;;;5011989;28;20091;-65
2023/02/10 00:04:03;;;;;;;6.75;0.80;;;;;;;;;;5015494;28;20041;-62
2023/02/10 00:06:30;;;;;;;5.57;1.08;;;;;;;;;;5016456;28;20038;-64
2023/02/10 00:08:58;;;;;;;7.55;0.90;;;;;;;;;;5020064;28;20044;-62
2023/02/10 00:14:11;;;;;;;5.53;0.90;;;;;;;;;;5021242;28;20172;-61
2023/02/10 00:16:37;;;;;;;5.30;0.93;;;;;;;;;;5002120;28;20068;-61
2023/02/10 00:19:04;;;;;;;7.82;1.10;;;;;;;;;;5021942;28;20092;-62
2023/02/10 00:21:30;;;;;;;5.78;1.00;;;;;;;;;;5020119;28;20038;-64
2023/02/10 00:23:57;;;;;;;4.22;1.00;;;;;;;;;;5020781;28;20132;-61
2023/02/10 00:26:25;;;;;;;3.67;0.90;;;;;;;;;;5003244;28;20037;-63
2023/02/10 00:28:51;;;;;;;12.02;1.10;;;;;;;;;;5022088;28;20037;-63
2023/02/10 00:31:18;;;;;;;13.13;1.10;;;;;;;;;;5003785;28;20406;-61
2023/02/10 00:33:45;;;;;;;10.98;1.23;;;;;;;;;;5020389;28;20038;-63
2023/02/10 00:36:13;;;;;;;5.32;0.93;;;;;;;;;;5021467;28;20033;-64
2023/02/10 00:38:40;;;;;;;6.28;1.13;;;;;;;;;;5009892;28;20032;-64
2023/02/10 00:41:08;;;;;;;5.43;0.93;;;;;;;;;;5019704;28;20052;-65
2023/02/10 00:43:36;;;;;;;5.07;1.00;;;;;;;;;;5020987;28;20073;-65
2023/02/10 00:46:03;;;;;;;6.43;0.93;;;;;;;;;;5021033;28;20037;-59
2023/02/10 00:48:30;;;;;;;6.00;1.10;;;;;;;;;;5021325;28;20392;-60
2023/02/10 00:50:56;;;;;;;1.70;0.60;;;;;;;;;;5020482;28;20049;-63
2023/02/10 00:53:23;;;;;;;8.70;1.23;;;;;;;;;;5020860;28;20037;-66
2023/02/10 00:55:50;;;;;;;7.97;1.10;;;;;;;;;;5021068;28;20037;-63
2023/02/10 00:58:16;;;;;;;6.45;1.33;;;;;;;;;;5020212;28;20410;-70
2023/02/10 01:00:43;;;;;;;6.20;1.13;;;;;;;;;;5018676;28;20046;-64
2023/02/10 01:03:09;;;;;;;4.20;0.70;;;;;;;;;;5020265;28;20045;-62
2023/02/10 01:05:36;;;;;;;6.20;1.02;;;;;;;;;;5020536;28;20046;-63
2023/02/10 01:08:03;;;;;;;3.00;0.80;;;;;;;;;;5019022;28;20057;-63
2023/02/10 01:10:34;;;;;;;6.25;0.77;;;;;;;;;;5018673;28;20040;-65
2023/02/10 01:13:01;;;;;;;3.95;0.75;;;;;;;;;;5020507;28;20033;-64
2023/02/10 01:15:28;;;;;;;2.65;0.70;;;;;;;;;;5019724;28;20080;-64
2023/02/10 01:17:55;;;;;;;2.92;0.70;;;;;;;;;;5019957;28;20046;-64
2023/02/10 01:20:21;;;;;;;4.85;0.70;;;;;;;;;;5017842;28;21334;-63
2023/02/10 01:22:48;;;;;;;7.15;1.00;;;;;;;;;;5017480;28;20505;-66
2023/02/10 01:25:14;;;;;;;6.88;0.70;;;;;;;;;;5020105;28;20045;-62
2023/02/10 01:27:41;;;;;;;2.47;0.65;;;;;;;;;;5007883;28;20163;-62
2023/02/10 01:30:10;;;;;;;5.32;0.80;;;;;;;;;;5016965;28;20042;-66
2023/02/10 01:32:37;;;;;;;1.95;0.60;;;;;;;;;;5019645;28;20111;-63
2023/02/10 01:35:04;;;;;;;9.13;0.93;;;;;;;;;;5020134;28;20034;-65
2023/02/10 01:37:36;;;;;;;4.13;1.00;;;;;;;;;;5002581;28;20422;-66
2023/02/10 01:40:03;;;;;;;5.13;0.80;;;;;;;;;;5019208;28;20041;-65
2023/02/10 01:42:29;;;;;;;3.28;0.82;;;;;;;;;;5017581;28;20095;-61
2023/02/10 01:45:13;;;;;;;2.83;0.65;;;;;;;;;;5020433;28;20044;-64
2023/02/10 01:47:40;;;;;;;4.45;0.80;;;;;;;;;;5018467;28;20168;-63
2023/02/10 01:50:07;;;;;;;5.32;1.10;;;;;;;;;;5018789;28;20746;-60
2023/02/10 01:52:34;;;;;;;8.13;0.95;;;;;;;;;;5018977;28;20052;-61
2023/02/10 01:55:03;;;;;;;4.03;0.80;;;;;;;;;;5019772;28;20058;-63
2023/02/10 01:57:30;;;;;;;4.28;0.85;;;;;;;;;;5018743;28;20037;-60
2023/02/10 01:59:59;;;;;;;2.72;0.60;;;;;;;;;;5019558;28;20044;-61
2023/02/10 02:02:25;;;;;;;3.80;0.80;;;;;;;;;;5018794;28;20049;-62
2023/02/10 02:04:54;;;;;;;1.90;0.60;;;;;;;;;;5019714;28;20839;-63
2023/02/10 02:07:26;;;;;;;3.00;0.85;;;;;;;;;;5019623;28;20073;-65
2023/02/10 02:09:53;;;;;;;4.25;0.90;;;;;;;;;;5019667;28;20039;-64
2023/02/10 02:12:23;;;;;;;6.75;0.93;;;;;;;;;;5019022;28;20500;-63
2023/02/10 02:14:49;;;;;;;3.35;0.82;;;;;;;;;;5017891;28;20049;-63
2023/02/10 02:17:22;;;;;;;6.97;0.85;;;;;;;;;;5019326;28;20810;-64
2023/02/10 02:19:51;;;;;;;4.82;0.88;;;;;;;;;;5017587;28;20433;-61
2023/02/10 02:22:41;;;;;;;2.88;0.60;;;;;;;;;;5018759;28;20053;-61
2023/02/10 02:25:07;;;;;;;2.22;0.65;;;;;;;;;;5018726;28;20045;-63
2023/02/10 02:27:37;;;;;;;4.97;0.80;;;;;;;;;;5017477;28;20045;-61
2023/02/10 02:30:16;;;;;;;5.82;0.85;;;;;;;;;;5018111;28;20458;-60
2023/02/10 02:33:02;;;;;;;3.25;0.70;;;;;;;;;;5016740;28;20834;-59
2023/02/10 02:35:31;;;;;;;2.13;0.60;;;;;;;;;;5000643;28;20033;-62
2023/02/10 02:37:58;;;;;;;2.22;0.60;;;;;;;;;;5023277;28;20091;-59
2023/02/10 02:40:25;;;;;;;7.78;0.63;;;;;;;;;;5017021;28;20052;-58
2023/02/10 02:42:51;;;;;;;4.03;0.70;;;;;;;;;;5028625;28;20063;-61
2023/02/10 02:45:20;;;;;;;3.20;0.80;;;;;;;;;;5033709;28;21577;-60
2023/02/10 02:47:56;;;;;;;4.28;1.25;;;;;;;;;;5025798;28;20052;-59
2023/02/10 02:50:35;;;;;;;1.48;0.50;;;;;;;;;;5017329;28;20084;-61
2023/02/10 02:53:07;;;;;;;4.47;0.70;;;;;;;;;;5019575;28;20475;-62
2023/02/10 02:55:40;;;;;;;4.72;0.63;;;;;;;;;;5019406;28;20530;-59
2023/02/10 02:58:19;;;;;;;2.10;0.60;;;;;;;;;;5018354;28;20037;-60
2023/02/10 03:00:47;;;;;;;8.95;0.75;;;;;;;;;;5017244;28;20060;-67
2023/02/10 03:03:13;;;;;;;3.00;0.63;;;;;;;;;;5016904;28;20474;-61
2023/02/10 03:05:40;;;;;;;4.80;0.95;;;;;;;;;;5000655;28;20136;-62
2023/02/10 03:08:07;;;;;;;3.45;0.75;;;;;;;;;;5016253;28;20049;-64
2023/02/10 03:10:33;;;;;;;2.15;0.63;;;;;;;;;;5017172;28;20036;-60
2023/02/10 03:13:00;;;;;;;3.30;0.70;;;;;;;;;;5018254;28;20387;-61
2023/02/10 03:15:27;;;;;;;1.98;0.60;;;;;;;;;;5016623;28;20468;-63
2023/02/10 03:17:54;;;;;;;2.33;0.75;;;;;;;;;;5017190;28;20091;-61
2023/02/10 03:20:20;;;;;;;3.20;0.52;;;;;;;;;;5000787;28;20045;-60
2023/02/10 03:22:47;;;;;;;2.35;0.70;;;;;;;;;;5016137;28;20064;-61
2023/02/10 03:25:13;;;;;;;4.43;0.82;;;;;;;;;;5017019;28;20771;-62
2023/02/10 03:27:40;;;;;;;4.35;0.80;;;;;;;;;;5000524;28;20037;-63
2023/02/10 03:30:07;;;;;;;3.15;0.65;;;;;;;;;;5016755;28;20038;-61
2023/02/10 03:32:34;;;;;;;4.63;0.75;;;;;;;;;;4995162;28;20040;-61
2023/02/10 03:35:01;;;;;;;2.10;0.60;;;;;;;;;;5017919;28;20131;-62
2023/02/10 03:37:27;;;;;;;3.05;0.80;;;;;;;;;;5018009;28;20075;-64
2023/02/10 03:39:54;;;;;;;1.77;0.50;;;;;;;;;;5017207;28;20128;-62
2023/02/10 03:42:20;;;;;;;3.08;0.60;;;;;;;;;;5016054;28;20064;-65
2023/02/10 03:44:47;;;;;;;2.55;0.70;;;;;;;;;;4999239;28;20375;-64
2023/02/10 03:47:14;;;;;;;2.13;0.60;;;;;;;;;;5016584;28;20328;-61
2023/02/10 03:49:40;;;;;;;2.55;0.68;;;;;;;;;;5014836;28;20091;-61
2023/02/10 03:52:07;;;;;;;4.50;0.70;;;;;;;;;;5016447;28;20397;-63
2023/02/10 03:54:34;;;;;;;5.88;0.60;;;;;;;;;;5017000;28;20041;-64
2023/02/10 03:57:00;;;;;;;2.80;0.63;;;;;;;;;;5017809;28;20084;-64
2023/02/10 03:59:27;;;;;;;1.63;0.60;;;;;;;;;;5017625;28;20034;-65
2023/02/10 04:01:54;;;;;;;2.15;0.50;;;;;;;;;;5017353;28;20033;-61
2023/02/10 04:04:20;;;;;;;2.78;0.77;;;;;;;;;;5017017;28;20041;-62
2023/02/10 04:06:47;;;;;;;2.40;0.60;;;;;;;;;;5017951;28;20041;-63
2023/02/10 04:09:13;;;;;;;1.25;0.50;;;;;;;;;;5018050;28;20070;-59
2023/02/10 04:11:40;;;;;;;2.00;0.50;;;;;;;;;;5017661;28;20117;-62
2023/02/10 04:14:07;;;;;;;4.65;0.70;;;;;;;;;;5029879;28;20061;-61
2023/02/10 04:16:34;;;;;;;9.25;0.90;;;;;;;;;;5018905;28;20116;-60
2023/02/10 04:19:00;;;;;;;8.48;0.98;;;;;;;;;;5017422;28;20042;-62
2023/02/10 04:21:27;;;;;;;2.47;0.65;;;;;;;;;;5016072;28;20029;-61
2023/02/10 04:23:54;;;;;;;3.20;0.70;;;;;;;;;;5016161;28;20053;-61
2023/02/10 04:26:20;;;;;;;2.92;0.60;;;;;;;;;;5009379;28;20169;-62
2023/02/10 04:28:47;;;;;;;4.82;0.82;;;;;;;;;;5016569;28;20045;-62
2023/02/10 04:31:14;;;;;;;2.25;0.60;;;;;;;;;;5016316;28;20037;-61
2023/02/10 04:33:40;;;;;;;2.60;0.60;;;;;;;;;;5007989;28;20107;-62
2023/02/10 04:36:07;;;;;;;2.05;0.63;;;;;;;;;;5017015;28;20042;-61
2023/02/10 04:38:34;;;;;;;5.57;0.82;;;;;;;;;;5016128;28;20033;-59
2023/02/10 04:41:05;;;;;;;2.45;0.68;;;;;;;;;;5017710;28;20053;-59
2023/02/10 04:43:32;;;;;;;5.00;1.10;;;;;;;;;;5016897;28;20136;-61
2023/02/10 04:45:59;;;;;;;4.22;0.88;;;;;;;;;;5018118;28;20048;-61
2023/02/10 04:48:25;;;;;;;3.83;0.80;;;;;;;;;;5011188;28;20057;-62
2023/02/10 04:50:52;;;;;;;3.25;0.77;;;;;;;;;;5016067;28;20046;-62
2023/02/10 04:53:19;;;;;;;2.45;0.80;;;;;;;;;;5018695;28;20072;-59
2023/02/10 04:55:46;;;;;;;5.43;0.80;;;;;;;;;;5020914;28;20061;-63
2023/02/10 04:58:12;;;;;;;2.30;0.70;;;;;;;;;;5020364;28;20041;-63
2023/02/10 05:00:39;;;;;;;2.15;0.60;;;;;;;;;;5019018;28;20045;-60
2023/02/10 05:03:05;;;;;;;2.40;0.60;;;;;;;;;;5021713;28;20140;-62
2023/02/10 05:05:32;;;;;;;4.25;0.80;;;;;;;;;;5019307;28;20461;-62
2023/02/10 05:07:59;;;;;;;1.92;0.60;;;;;;;;;;5021052;28;20057;-61
2023/02/10 05:10:25;;;;;;;2.05;0.60;;;;;;;;;;5018814;28;20037;-62
2023/02/10 05:12:52;;;;;;;2.25;0.60;;;;;;;;;;5019779;28;21219;-61
2023/02/10 05:15:19;;;;;;;5.43;0.70;;;;;;;;;;5019877;28;20041;-61
2023/02/10 05:17:45;;;;;;;2.58;0.80;;;;;;;;;;5020111;28;20747;-62
2023/02/10 05:20:12;;;;;;;3.63;0.68;;;;;;;;;;5018835;28;20037;-61
2023/02/10 05:22:40;;;;;;;3.42;0.90;;;;;;;;;;5019092;28;20179;-62
2023/02/10 05:25:07;;;;;;;2.35;0.70;;;;;;;;;;5019504;28;20168;-63
2023/02/10 05:27:35;;;;;;;4.28;0.60;;;;;;;;;;5019623;28;20037;-63
2023/02/10 05:30:01;;;;;;;1.88;0.57;;;;;;;;;;5019931;28;20535;-63
2023/02/10 05:32:28;;;;;;;2.15;0.75;;;;;;;;;;5018660;28;20084;-60
2023/02/10 05:34:55;;;;;;;1.33;0.40;;;;;;;;;;5020916;28;20037;-64
2023/02/10 05:37:21;;;;;;;1.98;0.60;;;;;;;;;;5019512;28;20393;-63
2023/02/10 05:39:48;;;;;;;1.08;0.50;;;;;;;;;;5019707;28;20056;-63
2023/02/10 05:42:15;;;;;;;3.08;0.70;;;;;;;;;;5019276;28;20041;-62
2023/02/10 05:44:41;;;;;;;2.30;0.63;;;;;;;;;;5019143;28;20166;-62
2023/02/10 05:47:08;;;;;;;2.22;0.65;;;;;;;;;;5007234;28;21487;-64
2023/02/10 05:49:34;;;;;;;3.50;0.70;;;;;;;;;;5017432;28;20042;-63
2023/02/10 05:52:01;;;;;;;1.33;0.50;;;;;;;;;;5018254;28;20379;-62
2023/02/10 05:54:28;;;;;;;1.45;0.50;;;;;;;;;;5019272;28;20137;-63
2023/02/10 05:56:56;;;;;;;2.45;0.85;;;;;;;;;;5020415;28;20054;-61
2023/02/10 05:59:22;;;;;;;1.85;0.60;;;;;;;;;;5009076;28;20048;-62
2023/02/10 06:01:49;;;;;;;2.25;0.60;;;;;;;;;;5019075;28;20045;-64
2023/02/10 06:04:16;;;;;;;2.15;0.60;;;;;;;;;;5019199;28;20111;-62
2023/02/10 06:06:42;;;;;;;1.48;0.50;;;;;;;;;;5018730;28;20037;-62
2023/02/10 06:09:09;;;;;;;1.80;0.50;;;;;;;;;;5017181;28;20038;-64
2023/02/10 06:11:36;;;;;;;2.10;0.57;;;;;;;;;;5018353;28;20041;-63
2023/02/10 06:14:02;;;;;;;2.10;0.60;;;;;;;;;;5020151;28;20398;-63
2023/02/10 06:16:29;;;;;;;1.98;0.52;;;;;;;;;;5018693;28;20045;-64
2023/02/10 06:18:56;;;;;;;2.53;0.80;;;;;;;;;;5019314;28;20482;-62
2023/02/10 06:21:23;;;;;;;2.88;0.80;;;;;;;;;;5017896;28;20124;-62
2023/02/10 06:23:50;;;;;;;1.95;0.65;;;;;;;;;;5020950;28;20269;-66
2023/02/10 06:26:18;;;;;;;1.73;0.60;;;;;;;;;;5022733;28;20117;-61
2023/02/10 06:28:44;;;;;;;1.83;0.60;;;;;;;;;;5022254;28;20103;-62
2023/02/10 06:31:11;;;;;;;2.67;0.80;;;;;;;;;;5020839;28;20051;-63
2023/02/10 06:33:38;;;;;;;3.22;0.90;;;;;;;;;;5021253;28;20041;-63
2023/02/10 06:36:07;;;;;;;2.67;0.80;;;;;;;;;;5019591;28;20120;-62
2023/02/10 06:38:34;;;;;;;4.70;0.65;;;;;;;;;;5019415;28;20495;-63
2023/02/10 06:41:01;;;;;;;3.30;0.80;;;;;;;;;;5018045;28;20512;-62
2023/02/10 06:43:28;;;;;;;7.05;0.85;;;;;;;;;;5017958;28;20049;-63
2023/02/10 06:45:54;;;;;;;3.63;0.73;;;;;;;;;;5018491;28;20033;-64
2023/02/10 06:48:21;;;;;;;2.95;0.65;;;;;;;;;;5018755;28;21886;-61
2023/02/10 06:50:48;;;;;;;1.95;0.60;;;;;;;;;;5018861;28;20514;-61
2023/02/10 06:53:14;;;;;;;4.88;0.73;;;;;;;;;;5018626;28;20048;-61
2023/02/10 06:55:41;;;;;;;1.77;0.57;;;;;;;;;;5016870;28;20378;-61
2023/02/10 06:58:08;;;;;;;1.52;0.60;;;;;;;;;;5018906;28;20037;-59
2023/02/10 07:00:34;;;;;;;2.20;0.60;;;;;;;;;;5016613;28;20076;-62
2023/02/10 07:03:01;;;;;;;1.90;0.50;;;;;;;;;;5018688;28;21120;-59
2023/02/10 07:05:27;;;;;;;3.42;0.80;;;;;;;;;;5018249;28;20741;-60
2023/02/10 07:07:55;;;;;;;5.82;0.88;;;;;;;;;;5020733;28;20160;-61
2023/02/10 07:10:21;;;;;;;1.80;0.60;;;;;;;;;;5021527;28;20037;-61
2023/02/10 07:12:48;;;;;;;3.33;0.60;;;;;;;;;;5022011;28;20042;-60
2023/02/10 07:15:17;;;;;;;4.57;0.77;;;;;;;;;;5021928;28;20104;-60
2023/02/10 07:17:43;;;;;;;1.77;0.43;;;;;;;;;;5020598;28;20756;-67
2023/02/10 07:20:10;;;;;;;1.75;0.50;;;;;;;;;;5022290;28;20446;-59
2023/02/10 07:22:37;;;;;;;1.23;0.50;;;;;;;;;;5022302;28;20037;-59
2023/02/10 07:25:04;;;;;;;2.03;0.70;;;;;;;;;;5020910;28;20050;-62
2023/02/10 07:27:30;;;;;;;2.25;0.65;;;;;;;;;;5016447;28;20553;-61
2023/02/10 07:29:57;;;;;;;2.22;0.70;;;;;;;;;;5016541;28;20041;-61
2023/02/10 07:32:23;;;;;;;2.42;0.70;;;;;;;;;;5017964;28;20060;-60
2023/02/10 07:34:51;;;;;;;2.33;0.70;;;;;;;;;;5017817;28;20790;-60
2023/02/10 07:37:17;;;;;;;6.85;0.70;;;;;;;;;;5018096;28;20050;-60
2023/02/10 07:39:44;;;;;;;3.35;0.60;;;;;;;;;;5019607;28;20046;-61
2023/02/10 07:42:31;;;;;;;2.03;0.60;;;;;;;;;;4973751;28;20460;-59
2023/02/10 07:44:58;;;;;;;1.77;0.50;;;;;;;;;;4971827;28;20046;-61
2023/02/10 07:47:25;;;;;;;3.38;0.60;;;;;;;;;;4973629;28;20551;-62
2023/02/10 07:49:53;;;;;;;2.22;0.63;;;;;;;;;;4973445;28;20042;-61
2023/02/10 07:52:21;;;;;;;1.92;0.60;;;;;;;;;;4972872;28;20035;-61
2023/02/10 07:54:48;;;;;;;2.33;0.70;;;;;;;;;;4974111;28;20030;-61
2023/02/10 07:57:14;;;;;;;1.75;0.50;;;;;;;;;;4974797;28;20081;-59
2023/02/10 07:59:41;;;;;;;4.18;0.73;;;;;;;;;;4974574;28;20085;-62
2023/02/10 08:02:08;;;;;;;2.83;0.50;;;;;;;;;;4974162;28;20038;-60
2023/02/10 08:04:35;;;;;;;2.10;0.50;;;;;;;;;;4971932;28;20141;-61
2023/02/10 08:07:01;;;;;;;7.97;0.70;;;;;;;;;;4972326;28;20042;-63
2023/02/10 08:09:28;;;;;;;2.90;0.60;;;;;;;;;;4971104;28;20034;-61
2023/02/10 08:11:55;;;;;;;3.13;0.60;;;;;;;;;;4974113;28;20522;-64
2023/02/10 08:14:22;;;;;;;2.05;0.60;;;;;;;;;;4974063;28;20367;-62
2023/02/10 08:16:49;;;;;;;1.95;0.60;;;;;;;;;;4975616;28;20038;-61
2023/02/10 08:19:15;;;;;;;3.10;0.60;;;;;;;;;;4982181;28;20524;-62
2023/02/10 08:21:42;;;;;;;2.40;0.70;;;;;;;;;;5018450;28;20049;-62
2023/02/10 08:24:09;;;;;;;2.50;0.65;;;;;;;;;;5015148;28;20104;-61
2023/02/10 08:26:35;;;;;;;1.63;0.50;;;;;;;;;;5013139;28;20499;-62
2023/02/10 08:29:02;;;;;;;5.25;0.80;;;;;;;;;;5019221;28;20041;-61
2023/02/10 08:31:29;;;;;;;3.13;0.60;;;;;;;;;;5024833;28;20137;-61
2023/02/10 08:33:56;;;;;;;5.03;0.65;;;;;;;;;;5025816;28;20657;-61
2023/02/10 08:36:23;;;;;;;3.17;0.60;;;;;;;;;;5003419;28;20037;-63
2023/02/10 08:38:51;;;;;;;1.73;0.63;;;;;;;;;;5022658;28;20048;-61
2023/02/10 08:41:18;;;;;;;2.20;0.70;;;;;;;;;;5002422;28;20044;-61
2023/02/10 08:43:45;;;;;;;3.85;0.80;;;;;;;;;;5023410;28;20683;-61
2023/02/10 08:46:12;;;;;;;2.75;0.80;;;;;;;;;;5014094;28;20758;-63
2023/02/10 08:48:38;;;;;;;2.50;0.70;;;;;;;;;;5017867;28;25016;-63
2023/02/10 08:51:08;;;;;;;2.75;0.70;;;;;;;;;;5022223;28;20065;-61
2023/02/10 08:53:35;;;;;;;1.83;0.60;;;;;;;;;;5022379;28;20045;-64
2023/02/10 08:56:04;;;;;;;4.65;0.73;;;;;;;;;;5021904;28;20060;-61
2023/02/10 08:58:31;;;;;;;3.00;0.88;;;;;;;;;;4998373;28;20077;-61
2023/02/10 09:00:58;;;;;;;2.03;0.65;;;;;;;;;;5019262;28;20040;-61
2023/02/10 09:03:26;;;;;;;2.90;0.80;;;;;;;;;;5019467;28;20820;-65
2023/02/10 09:05:53;;;;;;;2.10;0.60;;;;;;;;;;5019967;28;20494;-62
2023/02/10 09:08:20;;;;;;;5.10;0.70;;;;;;;;;;5002469;28;20450;-62
2023/02/10 09:10:47;;;;;;;2.30;0.70;;;;;;;;;;5018678;28;20041;-63
2023/02/10 09:13:13;;;;;;;1.80;0.60;;;;;;;;;;5018709;28;20104;-62
2023/02/10 09:15:41;;;;;;;1.77;0.60;;;;;;;;;;5018475;28;20044;-66
2023/02/10 09:18:08;;;;;;;3.08;0.68;;;;;;;;;;5003604;28;20146;-61
2023/02/10 09:20:35;;;;;;;2.78;0.70;;;;;;;;;;5018134;28;20529;-61
2023/02/10 09:23:02;;;;;;;2.15;0.60;;;;;;;;;;5020161;28;20049;-60
2023/02/10 09:25:29;;;;;;;2.65;0.60;;;;;;;;;;5010344;28;20103;-62
2023/02/10 09:27:57;;;;;;;4.85;0.88;;;;;;;;;;4997248;28;20052;-62
2023/02/10 09:30:27;;;;;;;2.63;0.70;;;;;;;;;;5018515;28;21011;-60
2023/02/10 09:32:55;;;;;;;2.70;0.88;;;;;;;;;;5021438;28;20124;-61
2023/02/10 09:35:21;;;;;;;1.20;0.47;;;;;;;;;;5019420;28;20104;-60
2023/02/10 09:37:48;;;;;;;2.00;0.63;;;;;;;;;;5021437;28;20251;-63
2023/02/10 09:40:23;;;;;;;1.92;0.60;;;;;;;;;;5017498;28;20073;-61
2023/02/10 09:43:04;;;;;;;2.30;0.63;;;;;;;;;;5009841;28;20064;-62
2023/02/10 09:45:37;;;;;;;1.70;0.60;;;;;;;;;;5017411;28;20052;-63
2023/02/10 09:48:17;;;;;;;1.95;0.70;;;;;;;;;;5018889;28;20160;-63
2023/02/10 09:50:51;;;;;;;2.20;0.70;;;;;;;;;;5018923;28;20044;-63
2023/02/10 09:53:22;;;;;;;2.05;0.60;;;;;;;;;;5020124;28;20411;-62
2023/02/10 09:55:57;;;;;;;2.08;0.70;;;;;;;;;;5019639;28;20073;-61
2023/02/10 09:58:30;;;;;;;2.45;0.70;;;;;;;;;;5019116;28;20167;-62
2023/02/10 10:00:56;;;;;;;;;;;;;;;;;;5022944;28;20592;-62
2023/02/10 10:03:27;;;;;;;2.80;0.60;;;;;;;;;;5028929;28;19913;-62
2023/02/10 10:06:03;;;;;;;2.20;0.50;;;;;;;;;;5047838;28;20041;-63
2023/02/10 10:08:35;;;;;;;2.65;0.68;;;;;;;;;;5041425;28;20199;-64
2023/02/10 10:11:05;;;;;;;3.72;0.80;;;;;;;;;;5029208;28;20120;-61
2023/02/10 10:13:31;;;;;;;4.90;0.70;;;;;;;;;;5018714;28;20042;-61
2023/02/10 10:16:10;;;;;;;1.95;0.60;;;;;;;;;;5020267;28;20048;-62
2023/02/10 10:18:42;;;;;;;3.53;0.80;;;;;;;;;;5018185;28;20094;-61
2023/02/10 10:21:20;;;;;;;2.05;0.60;;;;;;;;;;5019748;28;20033;-62
2023/02/10 10:24:04;;;;;;;1.98;0.70;;;;;;;;;;5018602;28;20054;-64
2023/02/10 10:26:30;;;;;;;;;;;;;;;;;;5018102;28;20060;-62
2023/02/10 10:29:12;;;;;;;2.25;0.55;;;;;;;;;;5018655;28;19925;-62
2023/02/10 10:31:41;;;;;;;2.25;0.60;;;;;;;;;;5018269;28;20052;-63
2023/02/10 10:34:08;;;;;;;1.70;0.50;;;;;;;;;;5018773;28;20232;-62
2023/02/10 10:36:36;;;;;;;2.65;0.80;;;;;;;;;;5018391;28;20091;-61
2023/02/10 10:39:21;;;;;;;4.00;0.80;;;;;;;;;;5017915;28;20038;-60
2023/02/10 10:41:48;;;;;;;2.65;0.85;;;;;;;;;;5018577;28;20053;-62
2023/02/10 10:44:17;;;;;;;3.20;0.85;;;;;;;;;;5020549;28;20095;-63
2023/02/10 10:46:47;;;;;;;2.17;0.75;;;;;;;;;;5016961;28;20128;-62
2023/02/10 10:49:13;;;;;;;3.55;0.70;;;;;;;;;;5017687;28;20042;-63
2023/02/10 10:51:40;;;;;;;2.85;0.80;;;;;;;;;;5016448;28;20038;-63
2023/02/10 10:54:11;;;;;;;2.60;0.73;;;;;;;;;;5019595;28;20041;-63
2023/02/10 10:56:49;;;;;;;2.88;0.80;;;;;;;;;;5017164;28;20465;-62
2023/02/10 10:59:19;;;;;;;1.85;0.50;;;;;;;;;;5018592;28;20037;-62
2023/02/10 11:01:46;;;;;;;2.15;0.65;;;;;;;;;;5020163;28;20290;-60
2023/02/10 11:04:14;;;;;;;1.05;0.43;;;;;;;;;;5019109;28;20033;-61
2023/02/10 11:06:42;;;;;;;2.20;0.57;;;;;;;;;;5018390;28;20089;-61
2023/02/10 11:09:18;;;;;;;3.33;0.60;;;;;;;;;;5018853;28;20109;-63
2023/02/10 11:11:45;;;;;;;2.78;0.70;;;;;;;;;;5017224;28;20048;-62
2023/02/10 11:14:16;;;;;;;1.90;0.65;;;;;;;;;;5018487;28;20048;-62
2023/02/10 11:17:01;;;;;;;1.60;0.50;;;;;;;;;;5017265;28;20032;-62
2023/02/10 11:19:30;;;;;;;1.85;0.60;;;;;;;;;;5016604;28;20138;-62
2023/02/10 11:21:56;;;;;;;1.70;0.60;;;;;;;;;;5017311;28;20454;-62
2023/02/10 11:24:34;;;;;;;2.03;0.60;;;;;;;;;;5017356;28;20132;-61
2023/02/10 11:27:00;;;;;;;2.35;0.77;;;;;;;;;;5018690;28;20509;-62
2023/02/10 11:29:28;;;;;;;3.13;0.65;;;;;;;;;;5016507;28;20140;-61
2023/02/10 11:31:56;;;;;;;2.00;0.50;;;;;;;;;;5019081;28;20037;-61
2023/02/10 11:34:25;;;;;;;4.15;0.80;;;;;;;;;;5018132;28;20034;-61
2023/02/10 11:36:53;;;;;;;1.92;0.60;;;;;;;;;;5017517;28;20120;-59
2023/02/10 11:39:25;;;;;;;2.60;0.70;;;;;;;;;;5016638;28;20036;-61
2023/02/10 11:41:53;;;;;;;1.38;0.57;;;;;;;;;;5018566;28;20041;-61
2023/02/10 11:44:28;;;;;;;4.15;0.60;;;;;;;;;;5017366;28;20040;-61
2023/02/10 11:46:56;;;;;;;2.95;0.70;;;;;;;;;;5018385;28;20042;-62
2023/02/10 11:49:23;;;;;;;2.00;0.63;;;;;;;;;;5016225;28;20029;-62
2023/02/10 11:51:54;;;;;;;3.85;0.85;;;;;;;;;;5016878;28;20128;-63
2023/02/10 11:54:20;;;;;;;2.33;0.73;;;;;;;;;;5016845;28;20477;-62
2023/02/10 11:59:47;;;;;;;3.38;0.80;;;;;;;;;;5018880;28;20083;-62
2023/02/10 12:02:52;;;;;;;2.30;0.63;;;;;;;;;;5017442;28;20041;-61
2023/02/10 12:05:22;;;;;;;1.80;0.63;;;;;;;;;;4931464;28;20051;-60
2023/02/10 12:08:01;;;;;;;2.17;0.75;;;;;;;;;;4932120;28;20105;-62
2023/02/10 12:10:34;;;;;;;4.00;0.75;;;;;;;;;;4961154;28;20069;-63
2023/02/10 12:13:00;;;;;;;3.00;0.73;;;;;;;;;;5020234;28;20037;-62
2023/02/10 12:15:35;;;;;;;2.22;0.70;;;;;;;;;;5021334;28;20037;-62
2023/02/10 12:18:11;;;;;;;2.95;0.90;;;;;;;;;;5020222;28;20033;-62
2023/02/10 12:21:00;;;;;;;1.90;0.70;;;;;;;;;;5019468;28;20137;-62
2023/02/10 12:23:30;;;;;;;1.63;0.70;;;;;;;;;;5018609;28;20375;-61
2023/02/10 12:26:02;;;;;;;3.25;0.70;;;;;;;;;;5019079;28;20498;-63
2023/02/10 12:28:44;;;;;;;4.22;1.10;;;;;;;;;;5017652;28;20081;-62
2023/02/10 12:31:14;;;;;;;4.18;0.88;;;;;;;;;;5019143;28;20091;-63
2023/02/10 12:33:52;;;;;;;5.03;1.05;;;;;;;;;;5017525;28;20794;-62
2023/02/10 12:36:28;;;;;;;5.47;1.00;;;;;;;;;;5016400;28;20129;-62
2023/02/10 12:38:54;;;;;;;5.80;1.05;;;;;;;;;;5015983;28;20037;-63
2023/02/10 12:41:39;;;;;;;4.00;1.10;;;;;;;;;;5017064;28;21200;-62
2023/02/10 12:44:22;;;;;;;4.80;1.20;;;;;;;;;;5017060;28;20156;-63
2023/02/10 12:46:59;;;;;;;3.25;0.90;;;;;;;;;;5003372;28;20049;-63
2023/02/10 12:49:33;;;;;;;3.65;1.20;;;;;;;;;;5006292;28;20048;-65
2023/02/10 12:52:14;;;;;;;2.70;0.90;;;;;;;;;;4998014;28;20026;-61
2023/02/10 12:54:41;;;;;;;4.70;1.10;;;;;;;;;;4996644;28;20548;-61
2023/02/10 12:57:11;;;;;;;4.15;1.30;;;;;;;;;;4996992;28;20065;-63
2023/02/10 13:00:03;;;;;;;5.40;1.40;;;;;;;;;;4996500;28;20048;-64
2023/02/10 13:02:48;;;;;;;6.63;1.27;;;;;;;;;;4965584;28;20042;-61
2023/02/10 13:05:18;;;;;;;4.28;1.40;;;;;;;;;;4997353;28;20037;-62
2023/02/10 13:07:51;;;;;;;4.03;1.27;;;;;;;;;;4995859;28;20095;-60
2023/02/10 13:10:21;;;;;;;5.00;1.30;;;;;;;;;;4997181;28;20138;-60
2023/02/10 13:12:49;;;;;;;8.15;1.50;;;;;;;;;;5002079;28;20056;-61
2023/02/10 13:15:18;;;;;;;4.20;1.50;;;;;;;;;;5018599;28;20045;-58
2023/02/10 13:17:49;;;;;;;5.32;1.20;;;;;;;;;;5010009;28;20042;-60
2023/02/10 13:20:25;;;;;;;4.05;1.33;;;;;;;;;;4999595;28;20046;-61
2023/02/10 13:23:10;;;;;;;4.05;1.35;;;;;;;;;;5020288;28;20352;-63
2023/02/10 13:25:45;;;;;;;3.95;1.30;;;;;;;;;;5019471;28;20049;-60
2023/02/10 13:28:12;;;;;;;5.60;1.38;;;;;;;;;;5019166;28;20042;-62
2023/02/10 13:30:53;;;;;;;3.72;1.10;;;;;;;;;;5020162;28;20045;-59
2023/02/10 13:33:34;;;;;;;5.07;1.38;;;;;;;;;;5018453;28;20071;-60
2023/02/10 13:36:01;;;;;;;4.20;1.17;;;;;;;;;;5018902;28;20141;-63
2023/02/10 13:38:31;;;;;;;5.32;1.40;;;;;;;;;;5016859;28;20091;-61
2023/02/10 13:41:41;;;;;;;4.25;1.38;;;;;;;;;;5020744;28;20083;-61
2023/02/10 13:43:46;;;;;;;6.03;1.38;;;;;;;;;;5018642;28;20042;-61
2023/02/10 13:46:24;;;;;;;4.72;1.23;;;;;;;;;;5019258;28;20033;-61
2023/02/10 13:48:55;;;;;;;4.28;1.50;;;;;;;;;;5018624;28;20056;-61
2023/02/10 13:51:39;;;;;;;3.83;1.48;;;;;;;;;;5019689;28;20842;-63
2023/02/10 13:54:06;;;;;;;4.80;1.40;;;;;;;;;;5019627;28;20092;-62
2023/02/10 13:56:34;;;;;;;3.38;1.17;;;;;;;;;;5018492;28;20041;-64
2023/02/10 13:59:19;;;;;;;4.63;1.23;;;;;;;;;;5020394;28;20056;-64
2023/02/10 14:02:01;;;;;;;3.65;1.48;;;;;;;;;;5019076;28;20045;-63
2023/02/10 14:04:39;;;;;;;5.53;1.70;;;;;;;;;;5015071;28;20091;-62
2023/02/10 14:07:34;;;;;;;5.15;1.35;;;;;;;;;;5019319;28;20604;-66
2023/02/10 14:10:00;;;;;;;;;;;;;;;;;;5016310;28;20044;-60
2023/02/10 14:12:28;;;;;;;3.95;1.25;;;;;;;;;;5018598;28;19928;-63
2023/02/10 14:14:55;;;;;;;3.85;1.35;;;;;;;;;;5016255;28;20064;-60
2023/02/10 14:17:27;;;;;;;3.85;1.45;;;;;;;;;;5020983;28;20083;-63
2023/02/10 14:19:55;;;;;;;3.20;1.48;;;;;;;;;;5030099;28;20041;-62
2023/02/10 14:22:48;;;;;;;6.22;1.58;;;;;;;;;;5024836;28;20145;-64
2023/02/10 14:25:40;;;;;;;3.75;1.30;;;;;;;;;;5008488;28;20041;-63
2023/02/10 14:28:16;;;;;;;4.10;1.50;;;;;;;;;;5037523;28;20180;-63
2023/02/10 14:30:45;;;;;;;5.70;1.40;;;;;;;;;;5039336;28;20474;-64
2023/02/10 14:33:30;;;;;;;3.63;1.40;;;;;;;;;;5039196;28;20044;-63
2023/02/10 14:35:59;;;;;;;3.95;1.10;;;;;;;;;;5036749;28;20041;-62
2023/02/10 14:38:30;;;;;;;3.83;1.30;;;;;;;;;;5034915;28;20042;-62
2023/02/10 14:40:57;;;;;;;4.90;1.50;;;;;;;;;;5021458;28;20037;-62
2023/02/10 14:43:26;;;;;;;6.65;1.30;;;;;;;;;;5035252;28;20124;-60
2023/02/10 14:45:53;;;;;;;4.93;1.45;;;;;;;;;;5022267;28;20097;-61
2023/02/10 14:48:22;;;;;;;5.18;1.55;;;;;;;;;;5021698;28;20041;-65
2023/02/10 14:50:59;;;;;;;3.65;1.58;;;;;;;;;;5014660;28;20491;-65
2023/02/10 14:53:25;;;;;;;5.40;1.55;;;;;;;;;;4997960;28;20045;-62
2023/02/10 14:55:59;;;;;;;2.72;0.88;;;;;;;;;;5025422;28;20042;-65
2023/02/10 14:58:27;;;;;;;5.65;1.38;;;;;;;;;;5010930;28;20112;-64
2023/02/10 15:01:02;;;;;;;4.38;1.40;;;;;;;;;;5011556;28;20030;-64
2023/02/10 15:03:29;;;;;;;4.72;1.33;;;;;;;;;;4998076;28;20101;-61